Aeroporto :
LOGIN :

Iscrizione | Disclaimer

   EN    FR    IT 

 










Sommario :    VFR   VFR Marginale   IFR   IFR Intensivo   IFR Molto Intensivo
Visibilità : 
Base nubi : 
>= 8 km
>= 3000ft
5 / 8 km
1000 / 3000 ft
1500m / 5 km
500 / 1000 ft
800 / 1500m
200 / 500 ft
< 800m
< 200 ft
Simboli :   Temporali  Nebbia  Neve Forte  Precipitazioni Forti  Vento > 20 kt
SIGMETs :   Varie  Temporali  Ghiacco  Turbolenza  Onda orograficha  Ceneri Vulcaniche






- Altitudine del aeroporto : 17 ft
- Codice IATA : GRS


LIRS - Grosseto

ULTIMO METAR :
  • 151155Z 23013KT 5000 -RA FEW005 FEW010CB SCT018 BKN025 12/11 Q1001 RMK OVC VIS MIN 5000 WIND THR03 24014KT WIND THR21 24012KT WHT

METARs OBSOLETI :
  • 151055Z 14004KT 4500 -RA FEW010 FEW012CB BKN020 12/10 Q1001 RMK OVC VIS MIN 4500 WIND THR03 15003KT WIND THR21 16004KT GRN
  • 150955Z 13006KT 6000 VCTS -RA FEW010 FEW012CB BKN025 12/10 Q1002 RMK OVC VIS MIN 6000 WIND THR03 17005KT WIND THR21 14006KT WHT
  • 150931Z 14008KT 5000 -TSRA FEW010 FEW012CB SCT020 BKN040 13/11 Q1002 RMK OVC VIS MIN 5000 WIND THR03 14007KT WIND THR21 15006KT WHT

TAF COR TAF LIRS
Valido dal 15 a 12 ore il 15 a 21 ore UTC


151130Z 1512/1521 22010KT 9999 SCT015 BKN060
TEMPO 1512/1516 24012G22KT 5000 TSRA FEW012CB BKN020 BKN040
BECMG 1518/1519 12012KT



MetMap, La meteo Aeronautica in un colpo d'occhio ! - Copyright ORBIFLY Dicembre 2007 - Disclaimer

ORBIFLY MET'MAP TEAM :

Programmazione e sviluppo : Alexandra Zaïnal
Concezione e sviluppo : Baudouin d'Aumeries
Co-Programmazione e sviluppo : Marc-Olivier Méhu
Supporto tecnico e logistico : Manuel Goepfert
Aiuto per la traduzione : Arnaldo La Scala

Contatto : metmap@orbifly.com




FONTI E CREDITI :

   NOAA